sensor_id;sensor_type;location;lat;lon;timestamp;temperature;humidity
61912;DHT22;49973;52.084;5.412;2024-02-14T00:01:28;8.30;99.90
61912;DHT22;49973;52.084;5.412;2024-02-14T00:03:57;8.30;99.90
61912;DHT22;49973;52.084;5.412;2024-02-14T00:06:27;8.40;99.90
61912;DHT22;49973;52.084;5.412;2024-02-14T00:08:55;8.40;99.90
61912;DHT22;49973;52.084;5.412;2024-02-14T00:11:24;8.40;99.90
61912;DHT22;49973;52.084;5.412;2024-02-14T00:13:52;8.40;99.90
61912;DHT22;49973;52.084;5.412;2024-02-14T00:16:23;8.40;99.90
61912;DHT22;49973;52.084;5.412;2024-02-14T00:18:52;8.40;99.90
61912;DHT22;49973;52.084;5.412;2024-02-14T00:21:21;8.40;99.90
61912;DHT22;49973;52.084;5.412;2024-02-14T00:23:50;8.50;99.90
61912;DHT22;49973;52.084;5.412;2024-02-14T00:26:19;8.40;99.90
61912;DHT22;49973;52.084;5.412;2024-02-14T00:28:48;8.50;99.90
61912;DHT22;49973;52.084;5.412;2024-02-14T00:31:17;8.50;99.90
61912;DHT22;49973;52.084;5.412;2024-02-14T00:33:45;8.50;99.90
61912;DHT22;49973;52.084;5.412;2024-02-14T00:36:14;8.50;99.90
61912;DHT22;49973;52.084;5.412;2024-02-14T00:38:43;8.50;99.90
61912;DHT22;49973;52.084;5.412;2024-02-14T00:41:13;8.70;99.90
61912;DHT22;49973;52.084;5.412;2024-02-14T00:43:41;8.60;99.90
61912;DHT22;49973;52.084;5.412;2024-02-14T00:46:15;8.60;99.90
61912;DHT22;49973;52.084;5.412;2024-02-14T00:48:45;8.60;99.90
61912;DHT22;49973;52.084;5.412;2024-02-14T00:51:14;8.60;99.90
61912;DHT22;49973;52.084;5.412;2024-02-14T00:53:42;8.60;99.90
61912;DHT22;49973;52.084;5.412;2024-02-14T00:56:12;8.60;99.90
61912;DHT22;49973;52.084;5.412;2024-02-14T00:58:41;8.70;99.90
61912;DHT22;49973;52.084;5.412;2024-02-14T01:01:10;8.70;99.90
61912;DHT22;49973;52.084;5.412;2024-02-14T01:03:39;8.70;99.90
61912;DHT22;49973;52.084;5.412;2024-02-14T01:06:08;8.70;99.90
61912;DHT22;49973;52.084;5.412;2024-02-14T01:08:37;8.90;99.90
61912;DHT22;49973;52.084;5.412;2024-02-14T01:11:05;8.80;99.90
61912;DHT22;49973;52.084;5.412;2024-02-14T01:13:35;8.80;99.90
61912;DHT22;49973;52.084;5.412;2024-02-14T01:16:05;8.80;99.90
61912;DHT22;49973;52.084;5.412;2024-02-14T01:18:33;8.80;99.90
61912;DHT22;49973;52.084;5.412;2024-02-14T01:21:03;8.80;99.90
61912;DHT22;49973;52.084;5.412;2024-02-14T01:23:32;8.90;99.90
61912;DHT22;49973;52.084;5.412;2024-02-14T01:26:01;8.90;99.90
61912;DHT22;49973;52.084;5.412;2024-02-14T01:28:29;9.10;99.90
61912;DHT22;49973;52.084;5.412;2024-02-14T01:30:59;8.90;99.90
61912;DHT22;49973;52.084;5.412;2024-02-14T01:33:28;8.90;99.90
61912;DHT22;49973;52.084;5.412;2024-02-14T01:35:58;9.00;99.90
61912;DHT22;49973;52.084;5.412;2024-02-14T01:38:27;9.00;99.90
61912;DHT22;49973;52.084;5.412;2024-02-14T01:40:55;9.00;99.90
61912;DHT22;49973;52.084;5.412;2024-02-14T01:43:24;9.00;99.90
61912;DHT22;49973;52.084;5.412;2024-02-14T01:45:52;9.00;99.90
61912;DHT22;49973;52.084;5.412;2024-02-14T01:48:23;9.00;99.90
61912;DHT22;49973;52.084;5.412;2024-02-14T01:50:51;9.10;99.90
61912;DHT22;49973;52.084;5.412;2024-02-14T01:53:20;9.10;99.90
61912;DHT22;49973;52.084;5.412;2024-02-14T01:55:49;9.10;99.90
61912;DHT22;49973;52.084;5.412;2024-02-14T01:58:17;9.10;99.90
61912;DHT22;49973;52.084;5.412;2024-02-14T02:00:47;9.10;99.90
61912;DHT22;49973;52.084;5.412;2024-02-14T02:03:17;9.20;99.90
61912;DHT22;49973;52.084;5.412;2024-02-14T02:05:47;9.20;99.90
61912;DHT22;49973;52.084;5.412;2024-02-14T02:08:16;9.20;99.90
61912;DHT22;49973;52.084;5.412;2024-02-14T02:10:44;9.20;99.90
61912;DHT22;49973;52.084;5.412;2024-02-14T02:13:13;9.20;99.90
61912;DHT22;49973;52.084;5.412;2024-02-14T02:15:43;9.20;99.90
61912;DHT22;49973;52.084;5.412;2024-02-14T02:18:13;9.30;99.90
61912;DHT22;49973;52.084;5.412;2024-02-14T02:20:42;9.20;99.90
61912;DHT22;49973;52.084;5.412;2024-02-14T02:23:12;9.30;99.90
61912;DHT22;49973;52.084;5.412;2024-02-14T02:25:43;9.30;99.90
61912;DHT22;49973;52.084;5.412;2024-02-14T02:28:11;9.30;99.90
61912;DHT22;49973;52.084;5.412;2024-02-14T02:30:40;9.30;99.90
61912;DHT22;49973;52.084;5.412;2024-02-14T02:33:09;9.30;99.90
61912;DHT22;49973;52.084;5.412;2024-02-14T02:35:39;9.40;99.90
61912;DHT22;49973;52.084;5.412;2024-02-14T02:38:09;9.30;99.90
61912;DHT22;49973;52.084;5.412;2024-02-14T02:40:39;9.40;99.90
61912;DHT22;49973;52.084;5.412;2024-02-14T02:43:07;9.40;99.90
61912;DHT22;49973;52.084;5.412;2024-02-14T02:45:37;9.40;99.90
61912;DHT22;49973;52.084;5.412;2024-02-14T02:48:07;9.40;99.90
61912;DHT22;49973;52.084;5.412;2024-02-14T02:50:35;9.40;99.90
61912;DHT22;49973;52.084;5.412;2024-02-14T02:53:04;9.40;99.90
61912;DHT22;49973;52.084;5.412;2024-02-14T02:55:33;9.40;99.90
61912;DHT22;49973;52.084;5.412;2024-02-14T02:58:05;9.40;99.90
61912;DHT22;49973;52.084;5.412;2024-02-14T03:00:34;9.50;99.90
61912;DHT22;49973;52.084;5.412;2024-02-14T03:03:03;9.50;99.90
61912;DHT22;49973;52.084;5.412;2024-02-14T03:05:35;9.50;99.90
61912;DHT22;49973;52.084;5.412;2024-02-14T03:08:06;9.50;99.90
61912;DHT22;49973;52.084;5.412;2024-02-14T03:10:35;9.50;99.90
61912;DHT22;49973;52.084;5.412;2024-02-14T03:13:05;9.50;99.90
61912;DHT22;49973;52.084;5.412;2024-02-14T03:15:35;9.50;99.90
61912;DHT22;49973;52.084;5.412;2024-02-14T03:18:04;9.60;99.90
61912;DHT22;49973;52.084;5.412;2024-02-14T03:20:37;9.50;99.90
61912;DHT22;49973;52.084;5.412;2024-02-14T03:23:05;9.60;99.90
61912;DHT22;49973;52.084;5.412;2024-02-14T03:25:34;9.60;99.90
61912;DHT22;49973;52.084;5.412;2024-02-14T03:28:05;9.60;99.90
61912;DHT22;49973;52.084;5.412;2024-02-14T03:30:36;9.60;99.90
61912;DHT22;49973;52.084;5.412;2024-02-14T03:33:06;9.70;99.90
61912;DHT22;49973;52.084;5.412;2024-02-14T03:35:36;9.70;99.90
61912;DHT22;49973;52.084;5.412;2024-02-14T03:38:05;9.70;99.90
61912;DHT22;49973;52.084;5.412;2024-02-14T03:40:36;9.80;99.90
61912;DHT22;49973;52.084;5.412;2024-02-14T03:43:06;9.70;99.90
61912;DHT22;49973;52.084;5.412;2024-02-14T03:45:39;9.80;99.90
61912;DHT22;49973;52.084;5.412;2024-02-14T03:48:08;9.80;99.90
61912;DHT22;49973;52.084;5.412;2024-02-14T03:50:38;9.80;99.90
61912;DHT22;49973;52.084;5.412;2024-02-14T03:53:07;9.80;99.90
61912;DHT22;49973;52.084;5.412;2024-02-14T03:55:38;9.90;99.90
61912;DHT22;49973;52.084;5.412;2024-02-14T03:58:08;9.90;99.90
61912;DHT22;49973;52.084;5.412;2024-02-14T04:00:37;9.90;99.90
61912;DHT22;49973;52.084;5.412;2024-02-14T04:03:05;9.90;99.90
61912;DHT22;49973;52.084;5.412;2024-02-14T04:05:34;10.00;99.90
61912;DHT22;49973;52.084;5.412;2024-02-14T04:08:04;10.00;99.90
61912;DHT22;49973;52.084;5.412;2024-02-14T04:10:36;10.00;99.90
61912;DHT22;49973;52.084;5.412;2024-02-14T04:13:05;10.10;99.90
61912;DHT22;49973;52.084;5.412;2024-02-14T04:15:35;10.10;99.90
61912;DHT22;49973;52.084;5.412;2024-02-14T04:18:03;10.10;99.90
61912;DHT22;49973;52.084;5.412;2024-02-14T04:20:34;10.10;99.90
61912;DHT22;49973;52.084;5.412;2024-02-14T04:23:03;10.10;99.90
61912;DHT22;49973;52.084;5.412;2024-02-14T04:25:35;10.10;99.90
61912;DHT22;49973;52.084;5.412;2024-02-14T04:28:04;10.10;99.90
61912;DHT22;49973;52.084;5.412;2024-02-14T04:30:34;10.10;99.90
61912;DHT22;49973;52.084;5.412;2024-02-14T04:33:04;10.10;99.90
61912;DHT22;49973;52.084;5.412;2024-02-14T04:35:38;10.10;99.90
61912;DHT22;49973;52.084;5.412;2024-02-14T04:38:07;10.20;99.90
61912;DHT22;49973;52.084;5.412;2024-02-14T04:40:36;10.20;99.90
61912;DHT22;49973;52.084;5.412;2024-02-14T04:43:05;10.20;99.90
61912;DHT22;49973;52.084;5.412;2024-02-14T04:45:35;10.20;99.90
61912;DHT22;49973;52.084;5.412;2024-02-14T04:48:04;10.20;99.90
61912;DHT22;49973;52.084;5.412;2024-02-14T04:50:33;10.20;99.90
61912;DHT22;49973;52.084;5.412;2024-02-14T04:53:02;10.20;99.90
61912;DHT22;49973;52.084;5.412;2024-02-14T04:55:30;10.30;99.90
61912;DHT22;49973;52.084;5.412;2024-02-14T04:58:00;10.30;99.90
61912;DHT22;49973;52.084;5.412;2024-02-14T05:00:29;10.30;99.90
61912;DHT22;49973;52.084;5.412;2024-02-14T05:02:59;10.30;99.90
61912;DHT22;49973;52.084;5.412;2024-02-14T05:05:28;10.30;99.90
61912;DHT22;49973;52.084;5.412;2024-02-14T05:07:57;10.30;99.90
61912;DHT22;49973;52.084;5.412;2024-02-14T05:10:26;10.30;99.90
61912;DHT22;49973;52.084;5.412;2024-02-14T05:12:55;10.30;99.90
61912;DHT22;49973;52.084;5.412;2024-02-14T05:15:24;10.30;99.90
61912;DHT22;49973;52.084;5.412;2024-02-14T05:17:52;10.40;99.90
61912;DHT22;49973;52.084;5.412;2024-02-14T05:20:22;10.40;99.90
61912;DHT22;49973;52.084;5.412;2024-02-14T05:22:51;10.30;99.90
61912;DHT22;49973;52.084;5.412;2024-02-14T05:25:20;10.40;99.90
61912;DHT22;49973;52.084;5.412;2024-02-14T05:27:48;10.30;99.90
61912;DHT22;49973;52.084;5.412;2024-02-14T05:30:17;10.40;99.90
61912;DHT22;49973;52.084;5.412;2024-02-14T05:32:46;10.40;99.90
61912;DHT22;49973;52.084;5.412;2024-02-14T05:35:14;10.40;99.90
61912;DHT22;49973;52.084;5.412;2024-02-14T05:37:44;10.40;99.90
61912;DHT22;49973;52.084;5.412;2024-02-14T05:40:17;10.40;99.90
61912;DHT22;49973;52.084;5.412;2024-02-14T05:42:46;10.40;99.90
61912;DHT22;49973;52.084;5.412;2024-02-14T05:45:15;10.40;99.90
61912;DHT22;49973;52.084;5.412;2024-02-14T05:47:43;10.40;99.90
61912;DHT22;49973;52.084;5.412;2024-02-14T05:50:12;10.40;99.90
61912;DHT22;49973;52.084;5.412;2024-02-14T05:52:41;10.40;99.90
61912;DHT22;49973;52.084;5.412;2024-02-14T05:55:11;10.40;99.90
61912;DHT22;49973;52.084;5.412;2024-02-14T05:57:39;10.40;99.90
61912;DHT22;49973;52.084;5.412;2024-02-14T06:00:09;10.40;99.90
61912;DHT22;49973;52.084;5.412;2024-02-14T06:02:39;10.40;99.90
61912;DHT22;49973;52.084;5.412;2024-02-14T06:05:08;10.50;99.90
61912;DHT22;49973;52.084;5.412;2024-02-14T06:07:38;10.40;99.90
61912;DHT22;49973;52.084;5.412;2024-02-14T06:10:08;10.40;99.90
61912;DHT22;49973;52.084;5.412;2024-02-14T06:12:38;10.40;99.90
61912;DHT22;49973;52.084;5.412;2024-02-14T06:15:08;10.40;99.90
61912;DHT22;49973;52.084;5.412;2024-02-14T06:17:37;10.50;99.90
61912;DHT22;49973;52.084;5.412;2024-02-14T06:20:07;10.40;99.90
61912;DHT22;49973;52.084;5.412;2024-02-14T06:22:36;10.50;99.90
61912;DHT22;49973;52.084;5.412;2024-02-14T06:25:16;10.50;99.90
61912;DHT22;49973;52.084;5.412;2024-02-14T06:27:46;10.50;99.90
61912;DHT22;49973;52.084;5.412;2024-02-14T06:30:15;10.50;99.90
61912;DHT22;49973;52.084;5.412;2024-02-14T06:32:45;10.50;99.90
61912;DHT22;49973;52.084;5.412;2024-02-14T06:35:14;10.50;99.90
61912;DHT22;49973;52.084;5.412;2024-02-14T06:37:47;10.50;99.90
61912;DHT22;49973;52.084;5.412;2024-02-14T06:40:29;10.50;99.90
61912;DHT22;49973;52.084;5.412;2024-02-14T06:42:59;10.50;99.90
61912;DHT22;49973;52.084;5.412;2024-02-14T06:45:28;10.50;99.90
61912;DHT22;49973;52.084;5.412;2024-02-14T06:47:57;10.50;99.90
61912;DHT22;49973;52.084;5.412;2024-02-14T06:50:26;10.50;99.90
61912;DHT22;49973;52.084;5.412;2024-02-14T06:52:56;10.50;99.90
61912;DHT22;49973;52.084;5.412;2024-02-14T06:55:27;10.50;99.90
61912;DHT22;49973;52.084;5.412;2024-02-14T06:57:56;10.60;99.90
61912;DHT22;49973;52.084;5.412;2024-02-14T07:00:26;10.60;99.90
61912;DHT22;49973;52.084;5.412;2024-02-14T07:02:55;10.60;99.90
61912;DHT22;49973;52.084;5.412;2024-02-14T07:05:24;10.60;99.90
61912;DHT22;49973;52.084;5.412;2024-02-14T07:07:53;10.60;99.90
61912;DHT22;49973;52.084;5.412;2024-02-14T07:10:22;10.60;99.90
61912;DHT22;49973;52.084;5.412;2024-02-14T07:12:51;10.60;99.90
61912;DHT22;49973;52.084;5.412;2024-02-14T07:15:19;10.60;99.90
61912;DHT22;49973;52.084;5.412;2024-02-14T07:17:49;10.60;99.90
61912;DHT22;49973;52.084;5.412;2024-02-14T07:20:18;10.60;99.90
61912;DHT22;49973;52.084;5.412;2024-02-14T07:22:48;10.60;99.90
61912;DHT22;49973;52.084;5.412;2024-02-14T07:25:20;10.60;99.90
61912;DHT22;49973;52.084;5.412;2024-02-14T07:27:49;10.70;99.90
61912;DHT22;49973;52.084;5.412;2024-02-14T07:30:17;10.70;99.90
61912;DHT22;49973;52.084;5.412;2024-02-14T07:32:46;10.70;99.90
61912;DHT22;49973;52.084;5.412;2024-02-14T07:35:16;10.70;99.90
61912;DHT22;49973;52.084;5.412;2024-02-14T07:37:45;10.70;99.90
61912;DHT22;49973;52.084;5.412;2024-02-14T07:40:15;10.70;99.90
61912;DHT22;49973;52.084;5.412;2024-02-14T07:42:45;10.70;99.90
61912;DHT22;49973;52.084;5.412;2024-02-14T07:45:13;10.70;99.90
61912;DHT22;49973;52.084;5.412;2024-02-14T07:47:42;10.70;99.90
61912;DHT22;49973;52.084;5.412;2024-02-14T07:50:11;10.70;99.90
61912;DHT22;49973;52.084;5.412;2024-02-14T07:52:43;10.70;99.90
61912;DHT22;49973;52.084;5.412;2024-02-14T07:55:12;10.70;99.90
61912;DHT22;49973;52.084;5.412;2024-02-14T07:57:41;10.80;99.90
61912;DHT22;49973;52.084;5.412;2024-02-14T08:00:11;10.70;99.90
61912;DHT22;49973;52.084;5.412;2024-02-14T08:02:45;10.70;99.90
61912;DHT22;49973;52.084;5.412;2024-02-14T08:05:14;10.90;99.90
61912;DHT22;49973;52.084;5.412;2024-02-14T08:07:45;10.80;99.90
61912;DHT22;49973;52.084;5.412;2024-02-14T08:10:14;10.80;99.90
61912;DHT22;49973;52.084;5.412;2024-02-14T08:12:43;10.70;99.90
61912;DHT22;49973;52.084;5.412;2024-02-14T08:15:11;10.80;99.90
61912;DHT22;49973;52.084;5.412;2024-02-14T08:17:40;10.80;99.90
61912;DHT22;49973;52.084;5.412;2024-02-14T08:20:13;10.80;99.90
61912;DHT22;49973;52.084;5.412;2024-02-14T08:22:42;10.80;99.90
61912;DHT22;49973;52.084;5.412;2024-02-14T08:25:12;10.80;99.90
61912;DHT22;49973;52.084;5.412;2024-02-14T08:27:41;10.80;99.90
61912;DHT22;49973;52.084;5.412;2024-02-14T08:30:10;10.90;99.90
61912;DHT22;49973;52.084;5.412;2024-02-14T08:32:39;10.90;99.90
61912;DHT22;49973;52.084;5.412;2024-02-14T08:35:08;10.90;99.90
61912;DHT22;49973;52.084;5.412;2024-02-14T08:37:40;11.00;99.90
61912;DHT22;49973;52.084;5.412;2024-02-14T08:40:10;11.00;99.90
61912;DHT22;49973;52.084;5.412;2024-02-14T08:42:41;11.00;99.90
61912;DHT22;49973;52.084;5.412;2024-02-14T08:45:09;11.00;99.90
61912;DHT22;49973;52.084;5.412;2024-02-14T08:47:38;11.00;99.90
61912;DHT22;49973;52.084;5.412;2024-02-14T08:50:08;11.00;99.90
61912;DHT22;49973;52.084;5.412;2024-02-14T08:52:37;11.00;99.90
61912;DHT22;49973;52.084;5.412;2024-02-14T08:55:06;11.00;99.90
61912;DHT22;49973;52.084;5.412;2024-02-14T08:57:43;11.10;99.90
61912;DHT22;49973;52.084;5.412;2024-02-14T09:00:13;11.00;99.90
61912;DHT22;49973;52.084;5.412;2024-02-14T09:02:47;11.10;99.90
61912;DHT22;49973;52.084;5.412;2024-02-14T09:05:16;11.10;99.90
61912;DHT22;49973;52.084;5.412;2024-02-14T09:07:46;11.20;99.90
61912;DHT22;49973;52.084;5.412;2024-02-14T09:10:14;11.20;99.90
61912;DHT22;49973;52.084;5.412;2024-02-14T09:12:44;11.10;99.90
61912;DHT22;49973;52.084;5.412;2024-02-14T09:15:13;11.10;99.90
61912;DHT22;49973;52.084;5.412;2024-02-14T09:17:42;11.10;99.90
61912;DHT22;49973;52.084;5.412;2024-02-14T09:20:11;11.10;99.90
61912;DHT22;49973;52.084;5.412;2024-02-14T09:22:41;11.10;99.90
61912;DHT22;49973;52.084;5.412;2024-02-14T09:25:10;11.10;99.90
61912;DHT22;49973;52.084;5.412;2024-02-14T09:27:40;11.20;99.90
61912;DHT22;49973;52.084;5.412;2024-02-14T09:30:11;11.10;99.90
61912;DHT22;49973;52.084;5.412;2024-02-14T09:32:54;11.10;99.90
61912;DHT22;49973;52.084;5.412;2024-02-14T09:35:23;11.10;99.90
61912;DHT22;49973;52.084;5.412;2024-02-14T09:37:53;11.10;99.90
61912;DHT22;49973;52.084;5.412;2024-02-14T09:40:21;11.10;99.90
61912;DHT22;49973;52.084;5.412;2024-02-14T09:42:53;11.10;99.90
61912;DHT22;49973;52.084;5.412;2024-02-14T09:45:25;11.10;99.90
61912;DHT22;49973;52.084;5.412;2024-02-14T09:47:54;11.20;99.90
61912;DHT22;49973;52.084;5.412;2024-02-14T09:50:24;11.20;99.90
61912;DHT22;49973;52.084;5.412;2024-02-14T09:52:55;11.20;99.90
61912;DHT22;49973;52.084;5.412;2024-02-14T09:55:25;11.10;99.90
61912;DHT22;49973;52.084;5.412;2024-02-14T09:57:54;11.20;99.90
61912;DHT22;49973;52.084;5.412;2024-02-14T10:00:25;11.20;99.90
61912;DHT22;49973;52.084;5.412;2024-02-14T10:02:54;11.20;99.90
61912;DHT22;49973;52.084;5.412;2024-02-14T10:05:23;11.20;99.90
61912;DHT22;49973;52.084;5.412;2024-02-14T10:07:56;11.20;99.90
61912;DHT22;49973;52.084;5.412;2024-02-14T10:10:25;11.20;99.90
61912;DHT22;49973;52.084;5.412;2024-02-14T10:12:55;11.30;99.90
61912;DHT22;49973;52.084;5.412;2024-02-14T10:15:25;11.30;99.90
61912;DHT22;49973;52.084;5.412;2024-02-14T10:17:54;11.30;99.90
61912;DHT22;49973;52.084;5.412;2024-02-14T10:20:23;11.50;99.90
61912;DHT22;49973;52.084;5.412;2024-02-14T10:23:00;11.30;99.90
61912;DHT22;49973;52.084;5.412;2024-02-14T10:25:29;11.40;99.90
61912;DHT22;49973;52.084;5.412;2024-02-14T10:28:03;11.40;99.90
61912;DHT22;49973;52.084;5.412;2024-02-14T10:30:34;11.40;99.90
61912;DHT22;49973;52.084;5.412;2024-02-14T10:33:03;11.40;99.90
61912;DHT22;49973;52.084;5.412;2024-02-14T10:35:47;11.40;99.90
61912;DHT22;49973;52.084;5.412;2024-02-14T10:38:19;11.40;99.90
61912;DHT22;49973;52.084;5.412;2024-02-14T10:40:48;11.40;99.90
61912;DHT22;49973;52.084;5.412;2024-02-14T10:43:17;11.40;99.90
61912;DHT22;49973;52.084;5.412;2024-02-14T10:45:47;11.50;99.90
61912;DHT22;49973;52.084;5.412;2024-02-14T10:48:16;11.50;99.90
61912;DHT22;49973;52.084;5.412;2024-02-14T10:50:47;11.60;99.90
61912;DHT22;49973;52.084;5.412;2024-02-14T10:53:18;11.70;99.90
61912;DHT22;49973;52.084;5.412;2024-02-14T10:55:48;11.70;99.90
61912;DHT22;49973;52.084;5.412;2024-02-14T10:58:17;11.70;99.90
61912;DHT22;49973;52.084;5.412;2024-02-14T11:00:47;11.80;99.90
61912;DHT22;49973;52.084;5.412;2024-02-14T11:03:17;11.80;99.90
61912;DHT22;49973;52.084;5.412;2024-02-14T11:05:46;11.80;99.90
61912;DHT22;49973;52.084;5.412;2024-02-14T11:08:18;11.80;99.90
61912;DHT22;49973;52.084;5.412;2024-02-14T11:10:53;11.80;99.90
61912;DHT22;49973;52.084;5.412;2024-02-14T11:13:25;12.00;99.90
61912;DHT22;49973;52.084;5.412;2024-02-14T11:15:56;11.90;99.90
61912;DHT22;49973;52.084;5.412;2024-02-14T11:18:25;12.00;99.90
61912;DHT22;49973;52.084;5.412;2024-02-14T11:20:54;11.90;99.90
61912;DHT22;49973;52.084;5.412;2024-02-14T11:23:24;11.90;99.90
61912;DHT22;49973;52.084;5.412;2024-02-14T11:26:00;11.90;99.90
61912;DHT22;49973;52.084;5.412;2024-02-14T11:28:29;11.90;99.90
61912;DHT22;49973;52.084;5.412;2024-02-14T11:31:00;12.00;99.90
61912;DHT22;49973;52.084;5.412;2024-02-14T11:33:32;11.90;99.90
61912;DHT22;49973;52.084;5.412;2024-02-14T11:36:08;11.90;99.90
61912;DHT22;49973;52.084;5.412;2024-02-14T11:38:40;11.90;99.90
61912;DHT22;49973;52.084;5.412;2024-02-14T11:41:11;11.90;99.90
61912;DHT22;49973;52.084;5.412;2024-02-14T11:43:50;11.90;99.90
61912;DHT22;49973;52.084;5.412;2024-02-14T11:46:20;11.90;99.90
61912;DHT22;49973;52.084;5.412;2024-02-14T11:48:48;11.90;99.90
61912;DHT22;49973;52.084;5.412;2024-02-14T11:51:17;11.90;99.90
61912;DHT22;49973;52.084;5.412;2024-02-14T11:53:46;11.90;99.90
61912;DHT22;49973;52.084;5.412;2024-02-14T11:56:15;11.90;99.90
61912;DHT22;49973;52.084;5.412;2024-02-14T11:58:44;11.00;99.90
61912;DHT22;49973;52.084;5.412;2024-02-14T12:01:13;11.90;99.90
61912;DHT22;49973;52.084;5.412;2024-02-14T12:03:44;11.90;99.90
61912;DHT22;49973;52.084;5.412;2024-02-14T12:06:12;12.00;99.90
61912;DHT22;49973;52.084;5.412;2024-02-14T12:08:43;11.90;99.90
61912;DHT22;49973;52.084;5.412;2024-02-14T12:11:12;12.00;99.90
61912;DHT22;49973;52.084;5.412;2024-02-14T12:13:40;12.00;99.90
61912;DHT22;49973;52.084;5.412;2024-02-14T12:16:11;12.00;99.90
61912;DHT22;49973;52.084;5.412;2024-02-14T12:18:40;12.10;99.90
61912;DHT22;49973;52.084;5.412;2024-02-14T12:21:10;12.10;99.90
61912;DHT22;49973;52.084;5.412;2024-02-14T12:23:40;12.10;99.90
61912;DHT22;49973;52.084;5.412;2024-02-14T12:26:09;12.00;99.90
61912;DHT22;49973;52.084;5.412;2024-02-14T12:28:46;12.10;99.90
61912;DHT22;49973;52.084;5.412;2024-02-14T12:31:22;12.10;99.90
61912;DHT22;49973;52.084;5.412;2024-02-14T12:33:50;12.10;99.90
61912;DHT22;49973;52.084;5.412;2024-02-14T12:36:24;12.10;99.90
61912;DHT22;49973;52.084;5.412;2024-02-14T12:38:53;12.20;99.90
61912;DHT22;49973;52.084;5.412;2024-02-14T12:41:22;12.10;99.90
61912;DHT22;49973;52.084;5.412;2024-02-14T12:43:54;12.10;99.90
61912;DHT22;49973;52.084;5.412;2024-02-14T12:46:22;12.10;99.90
61912;DHT22;49973;52.084;5.412;2024-02-14T12:48:51;12.10;99.90
61912;DHT22;49973;52.084;5.412;2024-02-14T12:51:20;12.10;99.90
61912;DHT22;49973;52.084;5.412;2024-02-14T12:53:50;12.10;99.90
61912;DHT22;49973;52.084;5.412;2024-02-14T12:56:19;12.10;99.90
61912;DHT22;49973;52.084;5.412;2024-02-14T12:58:48;12.10;99.90
61912;DHT22;49973;52.084;5.412;2024-02-14T13:01:17;12.10;99.90
61912;DHT22;49973;52.084;5.412;2024-02-14T13:03:46;12.10;99.90
61912;DHT22;49973;52.084;5.412;2024-02-14T13:06:15;12.10;99.90
61912;DHT22;49973;52.084;5.412;2024-02-14T13:08:44;12.10;99.90
61912;DHT22;49973;52.084;5.412;2024-02-14T13:11:14;12.10;99.90
61912;DHT22;49973;52.084;5.412;2024-02-14T13:13:46;12.10;99.90
61912;DHT22;49973;52.084;5.412;2024-02-14T13:16:15;12.30;99.90
61912;DHT22;49973;52.084;5.412;2024-02-14T13:18:43;12.10;99.90
61912;DHT22;49973;52.084;5.412;2024-02-14T13:21:12;12.10;99.90
61912;DHT22;49973;52.084;5.412;2024-02-14T13:23:41;12.10;99.90
61912;DHT22;49973;52.084;5.412;2024-02-14T13:26:10;12.10;99.90
61912;DHT22;49973;52.084;5.412;2024-02-14T13:28:40;12.20;99.90
61912;DHT22;49973;52.084;5.412;2024-02-14T13:31:09;12.10;99.90
61912;DHT22;49973;52.084;5.412;2024-02-14T13:33:38;12.10;99.90
61912;DHT22;49973;52.084;5.412;2024-02-14T13:36:08;12.20;99.90
61912;DHT22;49973;52.084;5.412;2024-02-14T13:38:36;12.20;99.90
61912;DHT22;49973;52.084;5.412;2024-02-14T13:41:05;12.20;99.90
61912;DHT22;49973;52.084;5.412;2024-02-14T13:43:34;12.20;99.90
61912;DHT22;49973;52.084;5.412;2024-02-14T13:46:04;12.30;99.90
61912;DHT22;49973;52.084;5.412;2024-02-14T13:48:33;12.30;99.90
61912;DHT22;49973;52.084;5.412;2024-02-14T13:51:02;12.30;99.90
61912;DHT22;49973;52.084;5.412;2024-02-14T13:53:31;12.20;99.90
61912;DHT22;49973;52.084;5.412;2024-02-14T13:56:00;12.20;99.90
61912;DHT22;49973;52.084;5.412;2024-02-14T13:58:29;12.30;99.90
61912;DHT22;49973;52.084;5.412;2024-02-14T14:00:58;12.20;99.90
61912;DHT22;49973;52.084;5.412;2024-02-14T14:03:28;12.30;99.90
61912;DHT22;49973;52.084;5.412;2024-02-14T14:05:57;12.30;99.90
61912;DHT22;49973;52.084;5.412;2024-02-14T14:08:25;12.30;99.90
61912;DHT22;49973;52.084;5.412;2024-02-14T14:10:54;12.30;99.90
61912;DHT22;49973;52.084;5.412;2024-02-14T14:13:23;12.20;99.90
61912;DHT22;49973;52.084;5.412;2024-02-14T14:15:51;12.20;99.90
61912;DHT22;49973;52.084;5.412;2024-02-14T14:18:20;12.30;99.90
61912;DHT22;49973;52.084;5.412;2024-02-14T14:20:50;12.20;99.90
61912;DHT22;49973;52.084;5.412;2024-02-14T14:23:19;12.30;99.90
61912;DHT22;49973;52.084;5.412;2024-02-14T14:25:48;12.30;99.90
61912;DHT22;49973;52.084;5.412;2024-02-14T14:28:17;12.30;99.90
61912;DHT22;49973;52.084;5.412;2024-02-14T14:30:47;12.30;99.90
61912;DHT22;49973;52.084;5.412;2024-02-14T14:33:17;12.20;99.90
61912;DHT22;49973;52.084;5.412;2024-02-14T14:35:46;12.30;99.90
61912;DHT22;49973;52.084;5.412;2024-02-14T14:38:18;12.30;99.90
61912;DHT22;49973;52.084;5.412;2024-02-14T14:40:47;12.40;99.90
61912;DHT22;49973;52.084;5.412;2024-02-14T14:43:15;12.40;99.90
61912;DHT22;49973;52.084;5.412;2024-02-14T14:45:46;12.40;99.90
61912;DHT22;49973;52.084;5.412;2024-02-14T14:48:17;12.40;99.90
61912;DHT22;49973;52.084;5.412;2024-02-14T14:50:46;12.40;99.90
61912;DHT22;49973;52.084;5.412;2024-02-14T14:53:15;12.40;99.90
61912;DHT22;49973;52.084;5.412;2024-02-14T14:55:53;12.50;99.90
61912;DHT22;49973;52.084;5.412;2024-02-14T14:58:23;12.50;99.90
61912;DHT22;49973;52.084;5.412;2024-02-14T15:00:56;12.50;99.90
61912;DHT22;49973;52.084;5.412;2024-02-14T15:03:26;12.50;99.90
61912;DHT22;49973;52.084;5.412;2024-02-14T15:05:55;12.50;99.90
61912;DHT22;49973;52.084;5.412;2024-02-14T15:08:24;12.50;99.90
61912;DHT22;49973;52.084;5.412;2024-02-14T15:10:56;12.50;99.90
61912;DHT22;49973;52.084;5.412;2024-02-14T15:13:25;12.50;99.90
61912;DHT22;49973;52.084;5.412;2024-02-14T15:15:55;12.50;99.90
61912;DHT22;49973;52.084;5.412;2024-02-14T15:18:25;12.50;99.90
61912;DHT22;49973;52.084;5.412;2024-02-14T15:20:54;12.60;99.90
61912;DHT22;49973;52.084;5.412;2024-02-14T15:23:23;12.50;99.90
61912;DHT22;49973;52.084;5.412;2024-02-14T15:25:52;12.60;99.90
61912;DHT22;49973;52.084;5.412;2024-02-14T15:28:27;12.50;99.90
61912;DHT22;49973;52.084;5.412;2024-02-14T15:30:56;12.50;99.90
61912;DHT22;49973;52.084;5.412;2024-02-14T15:33:42;12.50;99.90
61912;DHT22;49973;52.084;5.412;2024-02-14T15:36:11;12.50;99.90
61912;DHT22;49973;52.084;5.412;2024-02-14T15:38:43;12.50;99.90
61912;DHT22;49973;52.084;5.412;2024-02-14T15:41:12;12.50;99.90
61912;DHT22;49973;52.084;5.412;2024-02-14T15:43:43;12.50;99.90
61912;DHT22;49973;52.084;5.412;2024-02-14T15:46:12;12.50;99.90
61912;DHT22;49973;52.084;5.412;2024-02-14T15:48:42;12.50;99.90
61912;DHT22;49973;52.084;5.412;2024-02-14T15:51:12;12.60;99.90